createdAt,value
2023-04-26T00:02:05.479Z,66.90
2023-04-26T00:04:39.502Z,66.89
2023-04-26T00:07:13.980Z,66.91
2023-04-26T00:09:48.576Z,67.14
2023-04-26T00:12:22.535Z,67.24
2023-04-26T00:14:56.100Z,67.18
2023-04-26T00:17:29.566Z,67.08
2023-04-26T00:20:07.079Z,67.09
2023-04-26T00:22:41.056Z,67.08
2023-04-26T00:25:15.282Z,67.15
2023-04-26T00:27:49.093Z,67.10
2023-04-26T00:30:23.385Z,67.24
2023-04-26T00:32:57.073Z,67.17
2023-04-26T00:35:30.504Z,67.28
2023-04-26T00:38:04.257Z,67.46
2023-04-26T00:40:37.743Z,67.43
2023-04-26T00:43:11.308Z,67.42
2023-04-26T00:45:45.332Z,67.44
2023-04-26T00:48:19.620Z,67.53
2023-04-26T00:50:53.693Z,67.53
2023-04-26T00:53:28.291Z,67.63
2023-04-26T00:56:02.288Z,67.59
2023-04-26T00:58:36.330Z,67.59
2023-04-26T01:01:10.723Z,67.74
2023-04-26T01:03:47.147Z,67.68
2023-04-26T01:06:21.166Z,67.63
2023-04-26T01:08:59.086Z,67.54
2023-04-26T01:11:32.861Z,67.54
2023-04-26T01:14:08.877Z,67.67
2023-04-26T01:16:42.615Z,67.57
2023-04-26T01:19:16.881Z,67.44
2023-04-26T01:21:52.530Z,67.46
2023-04-26T01:24:28.796Z,67.55
2023-04-26T01:27:04.524Z,67.47
2023-04-26T01:29:38.091Z,67.44
2023-04-26T01:32:12.268Z,67.39
2023-04-26T01:34:45.500Z,67.30
2023-04-26T01:37:19.270Z,67.44
2023-04-26T01:39:52.830Z,67.51
2023-04-26T01:42:27.936Z,67.66
2023-04-26T01:45:01.985Z,67.94
2023-04-26T01:47:55.576Z,67.92
2023-04-26T01:50:30.157Z,67.88
2023-04-26T01:53:03.755Z,67.89
2023-04-26T01:55:37.519Z,67.77
2023-04-26T01:58:11.076Z,67.69
2023-04-26T02:00:45.120Z,67.71
2023-04-26T02:03:18.789Z,67.76
2023-04-26T02:05:52.387Z,67.69
2023-04-26T02:08:26.156Z,67.73
2023-04-26T02:11:00.188Z,67.78
2023-04-26T02:13:33.658Z,67.65
2023-04-26T02:16:08.323Z,67.86
2023-04-26T02:18:42.492Z,67.82
2023-04-26T02:21:18.156Z,67.79
2023-04-26T02:23:52.147Z,67.89
2023-04-26T02:26:27.310Z,67.66
2023-04-26T02:29:00.862Z,67.52
2023-04-26T02:31:34.545Z,67.57
2023-04-26T02:34:08.171Z,67.56
2023-04-26T02:36:41.494Z,67.67
2023-04-26T02:39:16.035Z,67.63
2023-04-26T02:41:49.801Z,67.58
2023-04-26T02:44:23.331Z,67.50
2023-04-26T02:46:57.538Z,67.48
2023-04-26T02:49:32.323Z,67.31
2023-04-26T02:52:06.397Z,67.22
2023-04-26T02:54:40.191Z,66.96
2023-04-26T02:57:13.691Z,66.87
2023-04-26T02:59:47.818Z,66.58
2023-04-26T03:02:22.138Z,66.19
2023-04-26T03:04:57.421Z,66.30
2023-04-26T03:07:31.790Z,66.28
2023-04-26T03:10:06.485Z,66.39
2023-04-26T03:12:41.192Z,66.38
2023-04-26T03:15:15.346Z,66.44
2023-04-26T03:17:49.396Z,66.19
2023-04-26T03:20:23.262Z,66.22
2023-04-26T03:22:56.523Z,66.33
2023-04-26T03:25:30.227Z,66.39
2023-04-26T03:28:04.367Z,66.31
2023-04-26T03:30:38.280Z,66.33
2023-04-26T03:33:12.469Z,66.27
2023-04-26T03:35:46.485Z,66.28
2023-04-26T03:38:20.046Z,66.33
2023-04-26T03:40:53.917Z,66.40
2023-04-26T03:43:28.050Z,66.49
2023-04-26T03:46:02.100Z,66.39
2023-04-26T03:48:35.672Z,66.46
2023-04-26T03:51:09.572Z,66.59
2023-04-26T03:53:44.151Z,66.65
2023-04-26T03:56:17.961Z,66.65
2023-04-26T03:58:51.649Z,66.67
2023-04-26T04:01:26.232Z,66.69
2023-04-26T04:04:00.678Z,66.87
2023-04-26T04:06:35.914Z,67.07
2023-04-26T04:09:09.665Z,66.85
2023-04-26T04:11:45.157Z,66.99
2023-04-26T04:14:20.553Z,67.01
2023-04-26T04:16:54.163Z,67.07
2023-04-26T04:19:28.449Z,67.10
2023-04-26T04:22:02.394Z,67.25
2023-04-26T04:24:36.334Z,67.36
2023-04-26T04:27:09.762Z,67.25
2023-04-26T04:29:46.554Z,67.14
2023-04-26T04:32:20.346Z,66.92
2023-04-26T04:34:54.234Z,66.78
2023-04-26T04:37:27.741Z,66.63
2023-04-26T04:40:01.669Z,66.62
2023-04-26T04:42:38.434Z,66.74
2023-04-26T04:45:15.306Z,66.69
2023-04-26T04:47:49.621Z,66.29
2023-04-26T04:50:23.793Z,66.06
2023-04-26T04:52:57.156Z,66.05
2023-04-26T04:55:32.453Z,65.93
2023-04-26T04:58:07.102Z,65.76
2023-04-26T05:00:41.145Z,65.65
2023-04-26T05:03:34.406Z,63.86
2023-04-26T05:06:10.483Z,63.06
2023-04-26T05:08:44.418Z,64.13
2023-04-26T05:11:18.502Z,63.22
2023-04-26T05:13:52.989Z,61.56
2023-04-26T05:16:27.965Z,60.96
2023-04-26T05:19:02.425Z,61.05
2023-04-26T05:21:36.928Z,60.74
2023-04-26T05:24:10.554Z,61.34
2023-04-26T05:26:44.170Z,63.03
2023-04-26T05:29:41.917Z,62.73
2023-04-26T05:32:34.879Z,61.83
2023-04-26T05:35:19.370Z,60.26
2023-04-26T05:37:52.756Z,57.10
2023-04-26T05:40:28.481Z,55.87
2023-04-26T05:43:02.602Z,54.30
2023-04-26T05:45:37.393Z,53.66
2023-04-26T05:48:11.342Z,52.68
2023-04-26T05:50:45.140Z,51.41
2023-04-26T05:53:19.548Z,49.62
2023-04-26T05:55:53.658Z,48.84
2023-04-26T05:58:27.745Z,47.23
2023-04-26T06:01:02.296Z,46.06
2023-04-26T06:03:37.859Z,45.19
2023-04-26T06:06:12.693Z,45.53
2023-04-26T06:08:47.896Z,45.47
2023-04-26T06:11:21.743Z,45.52
2023-04-26T06:13:55.568Z,44.83
2023-04-26T06:16:29.440Z,43.92
2023-04-26T06:19:03.234Z,43.46
2023-04-26T06:21:36.716Z,42.71
2023-04-26T06:24:11.321Z,41.73
2023-04-26T06:26:45.965Z,41.50
2023-04-26T06:29:20.706Z,41.58
2023-04-26T06:31:55.109Z,40.24
2023-04-26T06:34:28.798Z,38.86
2023-04-26T06:37:03.056Z,38.08
2023-04-26T06:39:38.643Z,36.40
2023-04-26T06:42:12.519Z,35.67
2023-04-26T06:45:19.277Z,35.48
2023-04-26T06:47:54.689Z,33.40
2023-04-26T06:50:30.973Z,32.37
2023-04-26T06:53:05.006Z,32.03
2023-04-26T06:55:38.640Z,31.38
2023-04-26T06:58:12.572Z,30.38
2023-04-26T07:00:47.000Z,29.94
2023-04-26T07:03:21.775Z,28.30
2023-04-26T07:05:56.725Z,27.18
2023-04-26T07:08:30.700Z,26.11
2023-04-26T07:11:04.756Z,26.26
2023-04-26T07:13:39.908Z,25.80
2023-04-26T07:16:13.854Z,25.82
2023-04-26T07:18:48.768Z,25.59
2023-04-26T07:21:22.901Z,25.00
2023-04-26T07:23:58.744Z,24.50
2023-04-26T07:26:32.181Z,24.06
2023-04-26T07:29:05.920Z,24.37
2023-04-26T07:31:39.894Z,24.80
2023-04-26T07:34:13.519Z,24.10
2023-04-26T07:36:47.624Z,22.92
2023-04-26T07:39:21.283Z,23.79
2023-04-26T07:41:55.806Z,23.44
2023-04-26T07:47:03.629Z,23.67
2023-04-26T07:49:37.722Z,23.45
2023-04-26T07:52:11.723Z,23.40
2023-04-26T07:54:47.103Z,22.91
2023-04-26T07:57:21.233Z,23.18
2023-04-26T07:59:55.038Z,24.33
2023-04-26T08:02:43.335Z,24.33
2023-04-26T08:05:19.453Z,25.27
2023-04-26T08:07:53.350Z,25.42
2023-04-26T08:10:27.613Z,26.09
2023-04-26T08:13:03.826Z,27.56
2023-04-26T08:15:37.566Z,27.85
2023-04-26T08:18:11.151Z,28.24
2023-04-26T08:20:44.815Z,28.77
2023-04-26T08:23:20.015Z,28.60
2023-04-26T08:25:54.071Z,28.39
2023-04-26T08:28:28.000Z,28.86
2023-04-26T08:31:01.824Z,29.56
2023-04-26T08:33:35.800Z,30.38
2023-04-26T08:36:10.672Z,28.52
2023-04-26T08:38:44.230Z,28.72
2023-04-26T08:41:24.211Z,28.06
2023-04-26T08:44:00.119Z,26.51
2023-04-26T08:46:40.812Z,26.80
2023-04-26T08:49:25.699Z,24.94
2023-04-26T08:52:00.383Z,24.05
2023-04-26T08:54:36.579Z,24.67
2023-04-26T08:57:10.606Z,25.10
2023-04-26T08:59:45.021Z,25.76
2023-04-26T09:02:22.520Z,26.96
2023-04-26T09:04:56.902Z,28.18
2023-04-26T09:07:37.231Z,27.84
2023-04-26T09:10:13.399Z,26.01
2023-04-26T09:12:47.331Z,24.39
2023-04-26T09:15:22.249Z,24.41
2023-04-26T09:17:56.310Z,24.87
2023-04-26T09:20:31.650Z,25.41
2023-04-26T09:23:10.400Z,26.24
2023-04-26T09:25:44.157Z,27.29
2023-04-26T09:28:27.718Z,28.20
2023-04-26T09:31:02.399Z,28.93
2023-04-26T09:33:36.060Z,29.64
2023-04-26T09:36:19.003Z,30.20
2023-04-26T09:38:52.993Z,30.81
2023-04-26T09:41:32.587Z,30.47
2023-04-26T09:44:06.461Z,30.28
2023-04-26T09:46:40.022Z,30.15
2023-04-26T09:49:13.533Z,30.33
2023-04-26T09:52:04.255Z,30.39
2023-04-26T09:54:48.956Z,29.92
2023-04-26T09:57:24.018Z,29.76
2023-04-26T09:59:57.886Z,30.25
2023-04-26T10:02:32.207Z,30.27
2023-04-26T10:05:08.737Z,30.06
2023-04-26T10:07:43.089Z,26.99
2023-04-26T10:10:18.386Z,26.08
2023-04-26T10:12:52.153Z,24.88
2023-04-26T10:15:26.117Z,23.40
2023-04-26T10:18:00.692Z,23.77
2023-04-26T10:20:34.740Z,24.60
2023-04-26T10:23:16.004Z,25.68
2023-04-26T10:25:51.548Z,26.20
2023-04-26T10:29:02.646Z,24.95
2023-04-26T10:32:12.278Z,24.30
2023-04-26T10:34:47.840Z,24.83
2023-04-26T10:37:21.729Z,25.19
2023-04-26T10:40:30.008Z,25.61
2023-04-26T10:43:33.271Z,26.19
2023-04-26T10:46:43.482Z,26.67
2023-04-26T10:49:26.239Z,27.35
2023-04-26T10:52:17.610Z,27.78
2023-04-26T10:54:53.824Z,27.79
2023-04-26T10:57:48.078Z,27.80
2023-04-26T11:00:37.938Z,28.48
2023-04-26T11:03:15.682Z,29.20
2023-04-26T11:06:10.101Z,29.44
2023-04-26T11:08:43.779Z,29.72
2023-04-26T11:11:21.441Z,30.16
2023-04-26T11:13:55.578Z,30.51
2023-04-26T11:16:32.406Z,30.92
2023-04-26T11:19:06.982Z,31.55
2023-04-26T11:21:41.969Z,32.00
2023-04-26T11:24:18.957Z,32.17
2023-04-26T11:26:56.494Z,32.24
2023-04-26T11:29:30.660Z,32.65
2023-04-26T11:32:04.260Z,32.84
2023-04-26T11:34:39.590Z,31.49
2023-04-26T11:37:13.652Z,30.84
2023-04-26T11:39:48.940Z,31.22
2023-04-26T11:42:28.671Z,31.57
2023-04-26T11:45:02.208Z,31.55
2023-04-26T11:47:36.942Z,31.60
2023-04-26T11:50:13.473Z,31.77
2023-04-26T11:52:47.808Z,31.77
2023-04-26T11:55:25.846Z,31.77
2023-04-26T11:57:59.619Z,31.77
2023-04-26T12:00:33.605Z,31.74
2023-04-26T12:03:11.933Z,31.76
2023-04-26T12:05:55.545Z,31.46
2023-04-26T12:08:29.669Z,31.41
2023-04-26T12:11:06.608Z,31.66
2023-04-26T12:13:43.092Z,31.54
2023-04-26T12:16:26.269Z,32.06
2023-04-26T12:19:01.353Z,31.38
2023-04-26T12:21:45.113Z,30.45
2023-04-26T12:24:30.222Z,29.88
2023-04-26T12:27:04.680Z,29.58
2023-04-26T12:29:38.613Z,30.06
2023-04-26T12:32:12.626Z,30.57
2023-04-26T12:34:46.983Z,30.38
2023-04-26T12:37:20.551Z,30.48
2023-04-26T12:39:54.087Z,30.90
2023-04-26T12:42:27.811Z,31.37
2023-04-26T12:45:01.141Z,31.76
2023-04-26T12:47:35.342Z,32.17
2023-04-26T12:50:12.330Z,30.42
2023-04-26T12:52:46.643Z,28.96
2023-04-26T12:55:22.438Z,28.61
2023-04-26T12:57:56.115Z,29.02
2023-04-26T13:00:30.270Z,29.78
2023-04-26T13:03:04.479Z,30.51
2023-04-26T13:05:38.578Z,30.98
2023-04-26T13:08:12.944Z,31.22
2023-04-26T13:10:46.853Z,31.37
2023-04-26T13:13:26.151Z,31.54
2023-04-26T13:16:03.718Z,31.53
2023-04-26T13:18:37.874Z,31.25
2023-04-26T13:21:11.527Z,31.30
2023-04-26T13:23:46.664Z,31.23
2023-04-26T13:26:20.873Z,31.17
2023-04-26T13:28:55.104Z,31.14
2023-04-26T13:31:29.104Z,31.10
2023-04-26T13:34:03.489Z,31.41
2023-04-26T13:36:37.585Z,31.46
2023-04-26T13:39:11.386Z,31.13
2023-04-26T13:41:45.625Z,30.93
2023-04-26T13:44:20.258Z,31.11
2023-04-26T13:46:54.905Z,31.25
2023-04-26T13:49:28.594Z,31.35
2023-04-26T13:52:02.208Z,31.51
2023-04-26T13:54:36.447Z,31.58
2023-04-26T13:57:12.186Z,31.55
2023-04-26T13:59:46.192Z,31.79
2023-04-26T14:02:20.049Z,32.02
2023-04-26T14:04:55.220Z,32.11
2023-04-26T14:07:29.726Z,32.22
2023-04-26T14:10:03.976Z,32.38
2023-04-26T14:12:37.833Z,32.55
2023-04-26T14:15:12.785Z,32.74
2023-04-26T14:17:47.714Z,32.73
2023-04-26T14:20:23.905Z,32.89
2023-04-26T14:22:57.674Z,32.93
2023-04-26T14:25:31.487Z,33.10
2023-04-26T14:28:05.579Z,33.26
2023-04-26T14:30:39.637Z,33.20
2023-04-26T14:33:13.235Z,33.58
2023-04-26T14:35:47.592Z,33.87
2023-04-26T14:38:21.608Z,34.11
2023-04-26T14:40:55.126Z,34.16
2023-04-26T14:43:28.952Z,34.17
2023-04-26T14:46:03.706Z,34.20
2023-04-26T14:48:37.512Z,34.05
2023-04-26T14:51:11.590Z,34.14
2023-04-26T14:53:45.216Z,34.26
2023-04-26T14:56:18.644Z,34.47
2023-04-26T14:58:52.428Z,34.82
2023-04-26T15:01:26.561Z,35.17
2023-04-26T15:04:01.247Z,35.31
2023-04-26T15:06:35.886Z,35.52
2023-04-26T15:09:12.049Z,35.90
2023-04-26T15:11:45.933Z,36.02
2023-04-26T15:14:19.877Z,36.17
2023-04-26T15:16:53.760Z,36.31
2023-04-26T15:19:27.500Z,36.45
2023-04-26T15:22:01.516Z,36.75
2023-04-26T15:24:39.199Z,36.77
2023-04-26T15:27:13.032Z,36.80
2023-04-26T15:29:46.577Z,36.95
2023-04-26T15:32:20.337Z,37.10
2023-04-26T15:34:53.994Z,37.22
2023-04-26T15:37:27.646Z,37.54
2023-04-26T15:40:01.560Z,37.72
2023-04-26T15:42:35.482Z,37.72
2023-04-26T15:45:11.613Z,37.76
2023-04-26T15:47:47.546Z,37.84
2023-04-26T15:50:21.257Z,37.86
2023-04-26T15:52:55.451Z,37.77
2023-04-26T15:55:29.403Z,37.68
2023-04-26T15:58:03.292Z,37.76
2023-04-26T16:00:37.522Z,37.96
2023-04-26T16:03:11.738Z,37.84
2023-04-26T16:05:45.476Z,37.86
2023-04-26T16:08:38.777Z,38.04
2023-04-26T16:11:14.976Z,38.16
2023-04-26T16:13:52.192Z,38.38
2023-04-26T16:16:26.460Z,38.50
2023-04-26T16:19:00.690Z,38.53
2023-04-26T16:21:34.488Z,38.59
2023-04-26T16:24:11.827Z,38.60
2023-04-26T16:26:47.230Z,38.67
2023-04-26T16:29:20.860Z,38.68
2023-04-26T16:31:54.468Z,38.73
2023-04-26T16:34:28.644Z,38.67
2023-04-26T16:37:02.617Z,38.85
2023-04-26T16:39:36.504Z,39.02
2023-04-26T16:42:10.618Z,39.02
2023-04-26T16:44:44.154Z,39.09
2023-04-26T16:47:18.172Z,39.00
2023-04-26T16:49:53.061Z,38.94
2023-04-26T16:52:27.221Z,38.83
2023-04-26T16:55:02.356Z,38.89
2023-04-26T16:57:35.832Z,38.91
2023-04-26T17:00:12.346Z,38.89
2023-04-26T17:02:46.413Z,38.99
2023-04-26T17:05:21.022Z,38.98
2023-04-26T17:07:56.267Z,39.17
2023-04-26T17:10:34.645Z,39.42
2023-04-26T17:13:10.339Z,39.51
2023-04-26T17:15:45.576Z,39.67
2023-04-26T17:18:19.404Z,39.86
2023-04-26T17:20:57.219Z,39.87
2023-04-26T17:23:33.210Z,40.05
2023-04-26T17:26:06.761Z,40.13
2023-04-26T17:28:40.949Z,40.27
2023-04-26T17:31:16.950Z,40.27
2023-04-26T17:33:51.958Z,40.39
2023-04-26T17:36:27.250Z,40.54
2023-04-26T17:39:00.934Z,40.60
2023-04-26T17:41:36.984Z,40.81
2023-04-26T17:44:13.880Z,40.95
2023-04-26T17:46:48.312Z,40.93
2023-04-26T17:49:26.757Z,41.07
2023-04-26T17:52:00.911Z,41.06
2023-04-26T17:54:34.767Z,41.22
2023-04-26T17:57:08.770Z,41.28
2023-04-26T17:59:43.842Z,41.45
2023-04-26T18:02:18.789Z,41.61
2023-04-26T18:04:56.040Z,41.54
2023-04-26T18:07:30.710Z,41.77
2023-04-26T18:10:09.758Z,41.73
2023-04-26T18:12:43.989Z,41.90
2023-04-26T18:15:19.688Z,42.02
2023-04-26T18:17:54.601Z,41.98
2023-04-26T18:20:29.571Z,41.92
2023-04-26T18:23:06.399Z,41.88
2023-04-26T18:25:41.890Z,41.98
2023-04-26T18:28:15.554Z,42.13
2023-04-26T18:30:50.270Z,42.28
2023-04-26T18:33:25.188Z,42.36
2023-04-26T18:35:59.691Z,42.50
2023-04-26T18:38:35.282Z,42.63
2023-04-26T18:41:10.087Z,42.72
2023-04-26T18:43:46.041Z,42.80
2023-04-26T18:46:20.882Z,42.88
2023-04-26T18:48:55.420Z,42.97
2023-04-26T18:51:32.798Z,42.86
2023-04-26T18:54:09.433Z,42.76
2023-04-26T18:56:45.741Z,42.95
2023-04-26T18:59:21.684Z,43.00
2023-04-26T19:01:56.805Z,42.86
2023-04-26T19:04:32.754Z,42.94
2023-04-26T19:07:07.169Z,43.12
2023-04-26T19:09:53.085Z,43.19
2023-04-26T19:12:31.741Z,43.21
2023-04-26T19:15:09.438Z,43.33
2023-04-26T19:17:46.679Z,43.23
2023-04-26T19:20:23.046Z,43.17
2023-04-26T19:22:58.943Z,43.08
2023-04-26T19:25:34.197Z,43.03
2023-04-26T19:28:10.180Z,43.05
2023-04-26T19:30:48.046Z,42.96
2023-04-26T19:33:24.882Z,43.02
2023-04-26T19:36:00.893Z,43.03
2023-04-26T19:38:38.519Z,43.05
2023-04-26T19:41:14.143Z,43.15
2023-04-26T19:43:50.516Z,43.39
2023-04-26T19:46:26.375Z,43.44
2023-04-26T19:49:03.390Z,43.37
2023-04-26T19:51:40.939Z,43.57
2023-04-26T19:54:20.331Z,43.62
2023-04-26T19:56:56.833Z,43.69
2023-04-26T19:59:36.002Z,43.68
2023-04-26T20:02:14.943Z,43.85
2023-04-26T20:04:51.241Z,44.02
2023-04-26T20:07:30.237Z,44.06
2023-04-26T20:10:03.673Z,44.13
2023-04-26T20:12:43.686Z,44.26
2023-04-26T20:15:19.762Z,44.59
2023-04-26T20:17:55.849Z,44.70
2023-04-26T20:20:32.281Z,44.86
2023-04-26T20:23:08.550Z,45.00
2023-04-26T20:25:43.325Z,45.15
2023-04-26T20:28:18.585Z,45.24
2023-04-26T20:30:54.115Z,45.37
2023-04-26T20:33:31.112Z,45.52
2023-04-26T20:36:09.233Z,45.66
2023-04-26T20:38:43.543Z,45.89
2023-04-26T20:41:17.998Z,46.17
2023-04-26T20:43:54.794Z,46.24
2023-04-26T20:46:29.062Z,46.53
2023-04-26T20:49:04.044Z,46.60
2023-04-26T20:51:38.000Z,46.72
2023-04-26T20:54:12.672Z,46.91
2023-04-26T20:56:46.955Z,47.02
2023-04-26T20:59:20.940Z,47.20
2023-04-26T21:01:54.570Z,47.32
2023-04-26T21:04:28.286Z,47.45
2023-04-26T21:07:02.317Z,47.57
2023-04-26T21:09:35.901Z,47.62
2023-04-26T21:12:10.286Z,47.77
2023-04-26T21:14:46.255Z,47.91
2023-04-26T21:17:20.956Z,48.00
2023-04-26T21:19:54.446Z,48.09
2023-04-26T21:22:28.550Z,48.21
2023-04-26T21:25:02.217Z,48.23
2023-04-26T21:27:36.108Z,48.33
2023-04-26T21:30:12.939Z,48.49
2023-04-26T21:32:46.439Z,48.66
2023-04-26T21:35:19.987Z,48.69
2023-04-26T21:37:53.571Z,48.83
2023-04-26T21:40:27.315Z,48.92
2023-04-26T21:43:05.245Z,48.97
2023-04-26T21:45:39.294Z,49.18
2023-04-26T21:48:13.161Z,49.46
2023-04-26T21:50:49.978Z,49.44
2023-04-26T21:53:23.204Z,49.43
2023-04-26T21:55:57.457Z,49.69
2023-04-26T21:58:31.547Z,49.76
2023-04-26T22:01:12.617Z,49.90
2023-04-26T22:03:46.850Z,50.01
2023-04-26T22:06:20.726Z,50.15
2023-04-26T22:08:54.417Z,50.25
2023-04-26T22:11:28.349Z,50.38
2023-04-26T22:14:02.009Z,50.42
2023-04-26T22:16:35.726Z,50.48
2023-04-26T22:19:09.956Z,50.59
2023-04-26T22:21:43.540Z,50.65
2023-04-26T22:24:17.862Z,50.74
2023-04-26T22:26:51.458Z,50.82
2023-04-26T22:29:25.576Z,50.94
2023-04-26T22:31:59.162Z,50.96
2023-04-26T22:34:32.517Z,51.14
2023-04-26T22:37:19.685Z,51.18
2023-04-26T22:39:56.917Z,51.29
2023-04-26T22:42:30.692Z,51.37
2023-04-26T22:45:04.510Z,51.42
2023-04-26T22:47:38.189Z,51.53
2023-04-26T22:50:13.476Z,51.66
2023-04-26T22:52:47.811Z,51.82
2023-04-26T22:55:21.881Z,51.84
2023-04-26T22:57:55.447Z,51.95
2023-04-26T23:00:28.995Z,52.01
2023-04-26T23:03:03.601Z,52.16
2023-04-26T23:05:38.117Z,52.20
2023-04-26T23:08:12.106Z,52.41
2023-04-26T23:10:45.601Z,52.51
2023-04-26T23:13:19.851Z,52.57
2023-04-26T23:15:53.461Z,52.62
2023-04-26T23:18:27.983Z,52.56
2023-04-26T23:21:01.778Z,52.59
2023-04-26T23:23:35.936Z,52.60
2023-04-26T23:26:09.890Z,52.67
2023-04-26T23:28:43.289Z,52.63
2023-04-26T23:31:17.315Z,52.73
2023-04-26T23:33:50.982Z,52.75
2023-04-26T23:36:25.061Z,52.77
2023-04-26T23:38:58.427Z,52.86
2023-04-26T23:41:32.164Z,52.98
2023-04-26T23:44:06.077Z,52.99
2023-04-26T23:46:40.264Z,53.06
2023-04-26T23:49:14.612Z,53.21
2023-04-26T23:51:48.608Z,53.31
2023-04-26T23:54:22.597Z,53.46
2023-04-26T23:56:56.145Z,53.53
2023-04-26T23:59:29.779Z,53.60
